Time;durP1;ratioP1;P1;durP2;ratioP2;P2;SDS_P1;SDS_P2;PMS_P1;PMS_P2;Temp;Humidity;BMP_temperature;BMP_pressure;BME280_temperature;BME280_humidity;BME280_pressure;Samples;Min_cycle;Max_cycle;Signal;HPM_P1;HPM_P2
2024/01/16 00:01:01;;;;;;;13.60;7.97;;;5.30;94.80;;;5.14;60.33;93453.06;5123454;27;20616;-63
2024/01/16 00:03:29;;;;;;;13.53;7.37;;;5.30;96.40;;;5.17;59.45;93455.41;5122439;27;20463;-61
2024/01/16 00:05:57;;;;;;;10.30;7.27;;;5.30;95.80;;;5.23;58.94;93490.50;5123767;27;20472;-62
2024/01/16 00:08:25;;;;;;;9.73;7.10;;;5.40;95.30;;;5.25;59.15;93458.13;5122896;27;20503;-61
2024/01/16 00:10:52;;;;;;;14.70;8.37;;;5.40;95.60;;;5.23;58.81;93486.09;5125046;27;20468;-62
2024/01/16 00:13:19;;;;;;;11.30;7.97;;;5.40;95.10;;;5.24;59.82;93453.88;5122133;27;20460;-63
2024/01/16 00:15:47;;;;;;;11.80;7.67;;;5.40;95.60;;;5.26;58.43;93470.19;5127394;27;20584;-60
2024/01/16 00:18:14;;;;;;;11.83;8.70;;;5.40;95.00;;;5.30;58.75;93481.97;5122116;27;20476;-60
2024/01/16 00:20:42;;;;;;;10.87;6.87;;;5.40;95.30;;;5.32;58.38;93485.25;5123697;27;20553;-63
2024/01/16 00:23:11;;;;;;;9.77;6.83;;;5.40;95.20;;;5.33;58.87;93476.47;5121960;27;20853;-60
2024/01/16 00:25:38;;;;;;;11.07;7.73;;;5.50;95.20;;;5.34;58.74;93498.97;5122370;27;21019;-60
2024/01/16 00:28:07;;;;;;;12.53;7.30;;;5.50;95.10;;;5.37;60.21;93477.81;5122036;27;20961;-64
2024/01/16 00:30:34;;;;;;;12.27;7.13;;;5.50;96.30;;;5.38;58.70;93502.94;5122959;27;20464;-61
2024/01/16 00:33:02;;;;;;;8.20;5.20;;;5.50;95.30;;;5.41;60.76;93477.53;5122213;27;20833;-62
2024/01/16 00:35:30;;;;;;;6.97;5.30;;;5.50;97.20;;;5.47;59.39;93510.84;5122835;27;20502;-61
2024/01/16 00:37:57;;;;;;;10.30;5.63;;;5.60;96.20;;;5.52;61.09;93493.03;5121972;27;20458;-60
2024/01/16 00:40:26;;;;;;;5.50;4.57;;;5.60;97.50;;;5.57;59.95;93483.78;5122746;27;20472;-64
2024/01/16 00:42:53;;;;;;;8.23;5.47;;;5.70;96.60;;;5.64;60.38;93501.47;5121967;27;20507;-61
2024/01/16 00:45:21;;;;;;;9.13;5.33;;;5.70;97.00;;;5.70;61.44;93488.69;5122536;27;20464;-62
2024/01/16 00:47:48;;;;;;;11.57;5.90;;;5.80;97.60;;;5.78;60.63;93474.06;5121546;27;20929;-61
2024/01/16 00:50:16;;;;;;;7.03;4.80;;;5.90;97.40;;;5.86;60.25;93484.63;5122758;27;20468;-62
2024/01/16 00:52:43;;;;;;;6.30;4.70;;;5.90;97.40;;;5.92;61.08;93476.22;5121753;27;20460;-62
2024/01/16 00:55:11;;;;;;;4.93;4.20;;;6.00;97.70;;;5.96;60.31;93476.72;5122778;27;20604;-63
2024/01/16 00:57:39;;;;;;;4.40;3.90;;;6.10;97.10;;;5.99;60.42;93506.00;5126546;27;20448;-62
2024/01/16 01:00:09;;;;;;;7.10;5.30;;;6.10;97.70;;;6.07;59.92;93490.44;5126868;27;20502;-60
2024/01/16 01:02:37;;;;;;;5.70;3.87;;;6.20;97.30;;;6.12;60.36;93497.00;5122185;27;20449;-60
2024/01/16 01:05:05;;;;;;;12.20;3.87;;;6.20;97.80;;;6.17;60.65;93518.28;5121887;27;20461;-62
2024/01/16 01:07:33;;;;;;;5.83;4.37;;;6.20;97.50;;;6.23;60.21;93528.94;5121686;27;20453;-62
2024/01/16 01:10:01;;;;;;;7.20;5.87;;;6.30;97.20;;;6.27;60.38;93517.25;5121551;27;20468;-61
2024/01/16 01:12:28;;;;;;;8.27;6.00;;;6.30;97.50;;;6.31;59.78;93506.50;5121427;27;20449;-61
2024/01/16 01:14:57;;;;;;;7.07;5.60;;;6.40;97.20;;;6.32;60.09;93519.41;5121656;27;20484;-61
2024/01/16 01:17:25;;;;;;;9.27;6.20;;;6.40;97.00;;;6.33;59.71;93509.78;5121681;27;20502;-62
2024/01/16 01:19:52;;;;;;;10.50;6.00;;;6.40;96.60;;;6.32;61.17;93495.06;5121474;27;20452;-61
2024/01/16 01:22:19;;;;;;;8.63;6.63;;;6.40;97.60;;;6.28;59.31;93499.78;5121122;27;20445;-62
2024/01/16 01:24:47;;;;;;;12.77;7.70;;;6.40;96.60;;;6.24;59.65;93496.66;5121339;27;20445;-61
2024/01/16 01:27:14;;;;;;;10.77;8.30;;;6.40;96.40;;;6.17;59.34;93479.13;5120767;27;20973;-62
2024/01/16 01:29:41;;;;;;;12.23;6.93;;;6.30;96.20;;;6.12;59.82;93489.16;5121510;27;20800;-61
2024/01/16 01:32:10;;;;;;;16.60;8.03;;;6.20;96.20;;;6.05;59.19;93489.75;5120469;27;20452;-61
2024/01/16 01:34:38;;;;;;;13.80;8.10;;;6.20;96.20;;;6.00;60.03;93473.72;5121655;27;20448;-62
2024/01/16 01:37:05;;;;;;;8.53;5.70;;;6.10;96.30;;;5.97;60.74;93484.44;5119912;27;20498;-62
2024/01/16 01:39:33;;;;;;;8.17;5.20;;;6.10;97.40;;;5.99;60.84;93492.94;5121225;27;20924;-60
2024/01/16 01:42:00;;;;;;;7.77;5.60;;;6.10;97.60;;;6.02;61.18;93486.63;5120492;27;21019;-62
2024/01/16 01:44:27;;;;;;;10.80;6.23;;;6.10;98.50;;;6.12;61.44;93497.00;5121700;27;20787;-61
2024/01/16 01:46:55;;;;;;;8.83;6.30;;;6.20;98.60;;;6.19;61.49;93503.28;5120628;27;20473;-61
2024/01/16 01:49:24;;;;;;;15.23;7.33;;;6.20;98.60;;;6.24;61.13;93507.09;5121352;27;20578;-62
2024/01/16 01:51:51;;;;;;;12.07;7.73;;;6.40;97.90;;;6.25;60.65;93507.91;5120182;27;20477;-62
2024/01/16 01:54:19;;;;;;;8.80;6.90;;;6.30;97.60;;;6.26;60.06;93515.59;5122767;27;20476;-62
2024/01/16 01:56:47;;;;;;;11.60;8.10;;;6.40;97.40;;;6.28;60.45;93507.63;5121251;27;20480;-62
2024/01/16 01:59:18;;;;;;;13.40;8.80;;;6.40;97.50;;;6.27;60.80;93501.59;5120566;27;20448;-62
2024/01/16 02:01:47;;;;;;;20.53;10.00;;;6.40;97.40;;;6.27;60.15;93513.78;5121271;27;20549;-61
2024/01/16 02:04:15;;;;;;;14.00;9.57;;;6.40;97.40;;;6.27;60.84;93503.34;5120854;27;21030;-62
2024/01/16 02:06:45;;;;;;;12.60;9.10;;;6.40;97.50;;;6.27;60.80;93516.41;5120239;27;20995;-62
2024/01/16 02:09:13;;;;;;;16.20;9.47;;;6.40;97.90;;;6.26;60.43;93502.53;5122813;27;20452;-60
2024/01/16 02:11:41;;;;;;;12.33;9.03;;;6.40;97.40;;;6.25;60.09;93497.47;5121424;27;20549;-62
2024/01/16 02:14:08;;;;;;;18.13;9.60;;;6.40;97.30;;;6.22;60.68;93506.41;5120321;27;20448;-60
2024/01/16 02:16:38;;;;;;;14.53;9.20;;;6.30;97.30;;;6.18;61.03;93509.47;5123088;27;20492;-62
2024/01/16 02:19:05;;;;;;;17.87;8.90;;;6.30;97.30;;;6.15;60.49;93512.38;5120345;27;20517;-60
2024/01/16 02:21:37;;;;;;;13.53;8.53;;;6.30;97.60;;;6.13;60.78;93527.34;5120991;27;20481;-61
2024/01/16 02:24:06;;;;;;;14.37;9.50;;;6.20;97.90;;;6.12;60.85;93533.53;5118970;27;20444;-62
2024/01/16 02:26:34;;;;;;;13.43;8.83;;;6.20;97.90;;;6.11;62.13;93543.16;5121855;27;20495;-62
2024/01/16 02:29:03;;;;;;;10.90;8.50;;;6.20;98.60;;;6.07;61.60;93553.09;5118882;27;20449;-61
2024/01/16 02:31:30;;;;;;;17.73;10.43;;;6.20;98.60;;;6.06;61.56;93567.09;5121880;27;20468;-62
2024/01/16 02:33:58;;;;;;;15.57;8.80;;;6.20;98.30;;;6.05;62.22;93560.22;5118508;27;20456;-61
2024/01/16 02:36:25;;;;;;;11.30;8.40;;;6.20;99.00;;;6.03;62.22;93571.78;5121330;27;20619;-62
2024/01/16 02:38:52;;;;;;;11.77;8.47;;;6.20;98.90;;;6.02;62.72;93576.16;5118634;27;20460;-61
2024/01/16 02:41:21;;;;;;;12.80;7.07;;;6.10;99.40;;;5.95;64.90;93579.47;5121199;27;20472;-61
2024/01/16 02:43:48;;;;;;;11.47;7.03;;;6.10;99.90;;;5.94;64.11;93599.53;5118336;27;20453;-61
2024/01/16 02:46:16;;;;;;;10.73;7.60;;;6.10;99.90;;;5.94;63.64;93599.53;5122416;27;20469;-61
2024/01/16 02:48:43;;;;;;;7.13;6.20;;;6.10;99.90;;;5.95;65.10;93601.19;5121427;27;20552;-62
2024/01/16 02:51:10;;;;;;;10.77;6.50;;;6.00;99.90;;;5.97;64.72;93609.72;5118214;27;20476;-62
2024/01/16 02:53:38;;;;;;;10.13;6.33;;;6.10;99.90;;;6.02;64.66;93622.34;5120961;28;20481;-62
2024/01/16 02:56:06;;;;;;;10.43;6.43;;;6.10;99.90;;;6.07;64.05;93623.56;5121808;28;20491;-61
2024/01/16 02:58:34;;;;;;;8.30;5.07;;;6.10;99.90;;;6.14;64.25;93633.44;5118346;28;20448;-60
2024/01/16 03:01:02;;;;;;;5.63;3.37;;;6.20;99.90;;;6.18;65.03;93627.78;5121444;28;20471;-62
2024/01/16 03:03:30;;;;;;;1.43;1.33;;;6.30;99.90;;;6.26;65.16;93640.13;5118439;28;20468;-62
2024/01/16 03:05:57;;;;;;;1.60;1.43;;;6.30;99.90;;;6.32;66.41;93642.16;5121250;28;20475;-61
2024/01/16 03:08:25;;;;;;;2.23;2.03;;;6.40;99.90;;;6.36;66.09;93663.56;5119117;28;20471;-63
2024/01/16 03:10:52;;;;;;;2.80;2.60;;;6.50;99.90;;;6.39;67.03;93658.88;5121162;28;20484;-62
2024/01/16 03:13:19;;;;;;;3.30;3.00;;;6.50;99.90;;;6.41;66.60;93680.44;5118727;28;20460;-62
2024/01/16 03:15:48;;;;;;;3.67;3.40;;;6.50;99.90;;;6.42;66.75;93689.09;5121095;28;20924;-62
2024/01/16 03:18:15;;;;;;;3.30;3.10;;;6.50;99.90;;;6.42;66.89;93696.94;5117988;28;20876;-62
2024/01/16 03:20:43;;;;;;;3.30;3.10;;;6.50;99.90;;;6.42;65.78;93702.16;5120746;28;20472;-63
2024/01/16 03:23:10;;;;;;;4.30;3.90;;;6.50;99.90;;;6.40;66.42;93706.72;5121502;28;20452;-62
2024/01/16 03:25:38;;;;;;;4.20;3.70;;;6.50;99.90;;;6.39;66.15;93708.47;5122373;28;20465;-61
2024/01/16 03:28:07;;;;;;;3.40;3.20;;;6.50;99.90;;;6.37;66.96;93715.66;5125165;28;20453;-63
2024/01/16 03:30:35;;;;;;;12.63;3.40;;;6.50;99.90;;;6.35;66.83;93728.03;5121146;28;20555;-62
2024/01/16 03:33:06;;;;;;;3.27;3.00;;;6.50;99.90;;;6.32;66.93;93733.53;5118377;28;20514;-63
2024/01/16 03:35:33;;;;;;;4.10;3.37;;;6.50;99.90;;;6.27;65.57;93736.59;5121235;28;20548;-61
2024/01/16 03:38:00;;;;;;;3.33;3.10;;;6.40;99.90;;;6.24;66.00;93739.47;5118443;28;20445;-62
2024/01/16 03:40:27;;;;;;;2.53;2.30;;;6.40;99.90;;;6.21;67.21;93749.34;5121094;28;20464;-61
2024/01/16 03:42:55;;;;;;;3.57;2.73;;;6.30;99.90;;;6.16;66.34;93748.97;5118166;28;20459;-61
2024/01/16 03:45:22;;;;;;;2.70;2.50;;;6.30;99.90;;;6.13;66.83;93751.84;5120990;28;20972;-63
2024/01/16 03:47:50;;;;;;;2.50;2.30;;;6.30;99.90;;;6.09;65.58;93759.16;5118373;28;20457;-62
2024/01/16 03:50:18;;;;;;;2.63;2.43;;;6.20;99.90;;;6.04;66.06;93775.22;5121259;28;20490;-61
2024/01/16 03:52:46;;;;;;;2.40;2.30;;;6.20;99.90;;;6.00;66.02;93765.22;5118145;28;20460;-63
2024/01/16 03:55:13;;;;;;;1.90;1.80;;;6.10;99.90;;;5.97;65.55;93781.97;5121223;28;20468;-60
2024/01/16 03:57:42;;;;;;;2.83;2.67;;;6.10;99.90;;;5.95;65.72;93798.69;5118042;28;21032;-62
2024/01/16 04:00:12;;;;;;;1.80;1.70;;;6.10;99.90;;;5.89;65.77;93802.69;5123189;27;20490;-62
2024/01/16 04:02:39;;;;;;;1.87;1.70;;;6.00;99.90;;;5.84;65.68;93815.31;5121950;27;20754;-62
2024/01/16 04:05:08;;;;;;;2.40;1.80;;;6.00;99.90;;;5.80;65.73;93822.59;5124753;27;20492;-61
2024/01/16 04:07:37;;;;;;;1.67;1.57;;;5.90;99.90;;;5.74;65.00;93823.13;5121240;27;20968;-62
2024/01/16 04:10:05;;;;;;;3.30;2.20;;;5.90;99.90;;;5.68;65.37;93845.34;5121101;27;20502;-63
2024/01/16 04:12:32;;;;;;;4.10;1.93;;;5.80;99.90;;;5.64;65.36;93838.78;5121119;27;20549;-62
2024/01/16 04:14:59;;;;;;;1.30;1.20;;;5.80;99.90;;;5.62;64.90;93845.91;5121603;27;20544;-61
2024/01/16 04:17:27;;;;;;;1.73;1.63;;;5.80;99.90;;;5.60;64.88;93847.03;5125321;27;20503;-62
2024/01/16 04:19:54;;;;;;;2.00;1.20;;;5.70;99.90;;;5.57;65.65;93856.75;5121080;27;20616;-62
2024/01/16 04:22:22;;;;;;;1.60;1.50;;;5.70;99.90;;;5.56;65.22;93851.66;5124798;27;20459;-62
2024/01/16 04:24:50;;;;;;;1.37;1.27;;;5.70;99.90;;;5.54;64.77;93853.59;5120914;27;20441;-63
2024/01/16 04:27:18;;;;;;;1.77;1.43;;;5.70;99.90;;;5.50;65.34;93860.03;5119488;27;20448;-62
2024/01/16 04:29:45;;;;;;;1.17;1.00;;;5.70;99.90;;;5.46;64.73;93858.66;5120798;27;20499;-63
2024/01/16 04:32:13;;;;;;;1.37;1.27;;;5.60;99.90;;;5.43;64.87;93856.31;5128963;27;20448;-63
2024/01/16 04:34:40;;;;;;;1.30;1.20;;;5.60;99.90;;;5.41;64.95;93853.00;5125054;27;20448;-62
2024/01/16 04:37:07;;;;;;;1.83;1.73;;;5.50;99.90;;;5.36;65.22;93856.00;5121150;27;20488;-62
2024/01/16 04:39:35;;;;;;;1.50;1.40;;;5.50;99.90;;;5.31;64.24;93858.19;5122780;27;20475;-63
2024/01/16 04:42:04;;;;;;;1.40;1.30;;;5.50;99.90;;;5.27;64.13;93877.69;5125711;27;20475;-62
2024/01/16 04:44:31;;;;;;;1.50;1.40;;;5.40;99.90;;;5.22;64.37;93901.53;5126313;27;20451;-62
2024/01/16 04:46:58;;;;;;;2.27;2.07;;;5.40;99.90;;;5.17;63.97;93904.53;5121376;27;20457;-61
2024/01/16 04:49:25;;;;;;;2.10;1.97;;;5.40;99.90;;;5.13;63.95;93905.75;5123840;27;20450;-63
2024/01/16 04:51:53;;;;;;;3.17;2.97;;;5.30;99.90;;;5.12;63.92;93926.72;5120189;27;20480;-63
2024/01/16 04:54:20;;;;;;;2.40;2.20;;;5.30;99.90;;;5.08;63.79;93935.75;5121204;27;20449;-62
2024/01/16 04:56:47;;;;;;;1.37;1.27;;;5.20;99.90;;;5.02;64.17;93950.97;5123692;27;20526;-63
2024/01/16 04:59:16;;;;;;;1.30;1.20;;;5.20;99.90;;;4.99;64.06;93953.81;5120787;27;20453;-58
2024/01/16 05:01:43;;;;;;;1.20;1.10;;;5.20;99.90;;;4.96;65.50;93961.09;5122527;27;20475;-65
2024/01/16 05:04:11;;;;;;;1.53;1.43;;;5.10;99.90;;;4.94;65.03;93968.19;5119971;27;20460;-62
2024/01/16 05:06:38;;;;;;;1.00;0.90;;;5.10;99.90;;;4.93;64.49;93974.38;5124870;27;20471;-62
2024/01/16 05:09:06;;;;;;;1.40;1.30;;;5.10;99.90;;;4.92;64.29;93973.53;5121121;27;20521;-62
2024/01/16 05:11:33;;;;;;;1.40;1.30;;;5.10;99.90;;;4.88;64.23;93984.31;5122861;27;20533;-62
2024/01/16 05:14:01;;;;;;;1.27;1.17;;;5.00;99.90;;;4.85;64.79;93983.63;5121209;27;20449;-62
2024/01/16 05:16:31;;;;;;;1.60;1.50;;;5.00;99.90;;;4.83;64.55;93990.75;5123013;27;20498;-62
2024/01/16 05:18:59;;;;;;;2.87;2.17;;;5.00;99.90;;;4.84;64.75;93999.41;5120479;27;20441;-62
2024/01/16 05:21:26;;;;;;;1.80;1.70;;;5.00;99.90;;;4.83;64.01;94000.34;5123531;27;20468;-63
2024/01/16 05:23:53;;;;;;;1.27;1.17;;;5.00;99.90;;;4.80;64.09;94011.00;5120833;27;20448;-62
2024/01/16 05:26:22;;;;;;;1.73;1.37;;;5.00;99.90;;;4.81;64.08;94008.28;5123107;27;20457;-62
2024/01/16 05:28:49;;;;;;;3.10;1.80;;;5.00;99.90;;;4.80;64.01;94011.00;5128744;27;20508;-62
2024/01/16 05:31:17;;;;;;;8.03;3.77;;;5.00;99.90;;;4.80;63.49;94026.66;5127796;27;20465;-63
2024/01/16 05:33:45;;;;;;;14.23;5.70;;;5.00;99.90;;;4.77;63.41;94026.91;5128734;27;20477;-63
2024/01/16 05:36:13;;;;;;;11.17;5.00;;;4.90;99.90;;;4.77;63.82;94037.31;5122182;27;20500;-63
2024/01/16 05:38:41;;;;;;;2.23;2.00;;;4.90;99.90;;;4.75;63.45;94047.03;5122723;27;20458;-63
2024/01/16 05:41:08;;;;;;;2.60;2.17;;;4.90;99.90;;;4.75;63.32;94060.06;5120273;27;20468;-62
2024/01/16 05:43:35;;;;;;;4.67;2.83;;;4.90;99.90;;;4.73;63.50;94065.41;5122749;27;20463;-63
2024/01/16 05:46:03;;;;;;;10.57;4.87;;;4.90;99.90;;;4.76;63.64;94072.16;5123888;27;20509;-62
2024/01/16 05:48:30;;;;;;;8.53;3.60;;;4.90;99.90;;;4.76;63.61;94077.34;5122595;27;20546;-62
2024/01/16 05:50:59;;;;;;;10.43;5.07;;;4.90;99.90;;;4.74;62.90;94084.44;5118642;27;20464;-62
2024/01/16 05:53:26;;;;;;;16.43;5.43;;;4.90;99.90;;;4.74;63.25;94097.47;5121970;27;20444;-61
2024/01/16 05:55:54;;;;;;;4.60;2.60;;;4.90;99.90;;;4.75;62.94;94091.31;5117347;27;20526;-61
2024/01/16 05:58:22;;;;;;;1.20;1.10;;;4.90;99.90;;;4.74;62.53;94092.25;5120157;27;20445;-63
2024/01/16 06:00:49;;;;;;;1.37;1.27;;;4.90;99.90;;;4.69;62.82;94105.66;5117884;27;20504;-63
2024/01/16 06:03:16;;;;;;;1.10;1.00;;;4.90;99.90;;;4.65;62.64;94118.13;5119534;27;20452;-64
2024/01/16 06:05:43;;;;;;;1.40;0.90;;;4.80;99.90;;;4.63;62.78;94117.41;5120106;27;20472;-63
2024/01/16 06:08:12;;;;;;;1.33;1.10;;;4.80;99.90;;;4.62;62.39;94115.75;5120409;27;20476;-62
2024/01/16 06:10:40;;;;;;;1.40;1.30;;;4.80;99.80;;;4.61;62.26;94137.53;5119120;27;20477;-61
2024/01/16 06:13:07;;;;;;;1.03;0.93;;;4.80;99.60;;;4.58;62.19;94132.56;5121482;27;20477;-63
2024/01/16 06:15:34;;;;;;;1.20;1.10;;;4.80;99.60;;;4.57;61.89;94156.97;5119758;27;20473;-62
2024/01/16 06:18:02;;;;;;;1.97;1.13;;;4.70;99.40;;;4.56;62.11;94155.31;5121639;27;20540;-62
2024/01/16 06:20:30;;;;;;;1.47;1.37;;;4.70;99.30;;;4.55;61.79;94177.06;5119715;27;20456;-62
2024/01/16 06:22:57;;;;;;;3.23;1.20;;;4.70;99.20;;;4.52;61.71;94174.72;5120807;27;20460;-61
2024/01/16 06:25:26;;;;;;;1.53;1.40;;;4.70;99.20;;;4.52;61.71;94179.09;5119839;27;20491;-62
2024/01/16 06:27:54;;;;;;;1.37;1.20;;;4.70;99.20;;;4.51;61.72;94193.91;5121566;27;20460;-61
2024/01/16 06:30:21;;;;;;;1.50;1.40;;;4.70;99.20;;;4.50;61.71;94197.44;5119519;27;20466;-60
2024/01/16 06:32:48;;;;;;;3.27;1.23;;;4.70;99.20;;;4.50;61.64;94213.06;5120099;27;20449;-62
2024/01/16 06:35:16;;;;;;;0.90;0.77;;;4.70;99.10;;;4.49;61.44;94216.63;5119106;27;20476;-62
2024/01/16 06:37:44;;;;;;;1.10;1.00;;;4.70;98.90;;;4.46;61.50;94209.03;5120902;27;20495;-62
2024/01/16 06:40:12;;;;;;;1.50;1.40;;;4.70;98.90;;;4.46;61.75;94216.84;5119775;27;20471;-62
2024/01/16 06:42:41;;;;;;;1.27;1.00;;;4.60;98.90;;;4.49;61.41;94232.25;5120854;27;20952;-62
2024/01/16 06:45:09;;;;;;;1.10;0.80;;;4.70;99.00;;;4.50;61.50;94249.53;5119865;27;20471;-63
2024/01/16 06:47:36;;;;;;;1.47;1.37;;;4.70;98.90;;;4.49;61.26;94243.50;5121496;27;20444;-62
2024/01/16 06:50:05;;;;;;;1.50;1.13;;;4.70;98.90;;;4.52;61.70;94246.81;5119205;27;20473;-62
2024/01/16 06:52:32;;;;;;;1.47;1.37;;;4.70;98.90;;;4.53;61.07;94259.72;5120862;27;20539;-62
2024/01/16 06:54:59;;;;;;;1.43;1.30;;;4.70;98.90;;;4.57;61.41;94265.50;5119441;28;20451;-63
2024/01/16 06:57:27;;;;;;;4.20;1.63;;;4.70;98.80;;;4.58;61.28;94251.53;5121741;28;20488;-62
2024/01/16 06:59:56;;;;;;;1.40;0.93;;;4.70;98.70;;;4.59;61.08;94261.84;5119491;28;20575;-62
2024/01/16 07:02:23;;;;;;;1.60;1.10;;;4.80;98.70;;;4.61;61.19;94265.13;5119395;28;20509;-63
2024/01/16 07:04:50;;;;;;;1.23;1.13;;;4.70;98.60;;;4.64;61.40;94274.50;5118789;28;21001;-61
2024/01/16 07:07:18;;;;;;;1.70;1.60;;;4.80;98.80;;;4.67;61.21;94282.09;5120790;28;20468;-63
2024/01/16 07:09:46;;;;;;;1.67;1.57;;;4.80;98.80;;;4.71;61.37;94293.09;5118888;28;20497;-63
2024/01/16 07:12:14;;;;;;;1.63;1.53;;;4.90;98.90;;;4.73;61.30;94309.44;5120759;28;20448;-62
2024/01/16 07:14:41;;;;;;;2.50;2.30;;;4.90;98.70;;;4.75;61.50;94315.34;5118790;28;20440;-63
2024/01/16 07:17:10;;;;;;;3.07;2.87;;;4.90;98.60;;;4.76;60.99;94323.06;5120117;28;21045;-63
2024/01/16 07:19:37;;;;;;;4.00;2.30;;;4.90;98.70;;;4.80;61.82;94321.03;5118572;28;20457;-62
2024/01/16 07:22:05;;;;;;;2.80;2.30;;;4.90;99.20;;;4.82;61.49;94337.41;5120483;28;20469;-64
2024/01/16 07:24:32;;;;;;;4.00;2.70;;;5.00;98.90;;;4.83;61.34;94354.66;5118718;28;20460;-62
2024/01/16 07:26:59;;;;;;;5.97;3.90;;;5.00;98.70;;;4.84;61.25;94361.53;5120145;28;20469;-62
2024/01/16 07:29:27;;;;;;;3.53;3.07;;;5.00;98.70;;;4.87;61.21;94355.28;5119153;28;20497;-62
2024/01/16 07:31:54;;;;;;;4.37;3.10;;;5.00;98.80;;;4.90;61.43;94349.84;5119614;28;20484;-65
2024/01/16 07:34:22;;;;;;;4.43;3.47;;;5.00;98.80;;;4.92;61.18;94367.00;5118979;27;20443;-63
2024/01/16 07:36:50;;;;;;;2.60;2.40;;;5.10;98.60;;;4.93;60.77;94370.44;5123972;27;20499;-62
2024/01/16 07:39:17;;;;;;;3.03;2.20;;;5.00;98.50;;;4.94;61.04;94377.28;5122804;27;20452;-62
2024/01/16 07:41:45;;;;;;;4.87;2.33;;;5.10;98.40;;;4.95;60.97;94371.97;5123983;27;20538;-63
2024/01/16 07:44:12;;;;;;;1.77;1.67;;;5.10;98.40;;;4.95;60.58;94374.56;5123387;27;20928;-63
2024/01/16 07:46:39;;;;;;;5.70;1.67;;;5.10;98.30;;;4.97;60.81;94374.44;5123872;27;20930;-62
2024/01/16 07:49:07;;;;;;;1.17;1.07;;;5.10;98.10;;;4.96;60.70;94385.84;5123070;27;20451;-63
2024/01/16 07:51:35;;;;;;;1.20;1.10;;;5.10;98.10;;;4.94;60.72;94387.72;5126766;27;20492;-63
2024/01/16 07:54:07;;;;;;;1.33;1.20;;;5.10;98.10;;;4.96;60.43;94406.69;5123554;27;20451;-63
2024/01/16 07:56:34;;;;;;;1.60;1.43;;;5.10;98.00;;;4.95;60.25;94408.44;5124073;27;20475;-62
2024/01/16 07:59:02;;;;;;;2.20;1.10;;;5.10;97.60;;;4.94;59.70;94411.16;5122464;27;20452;-62
2024/01/16 08:01:29;;;;;;;4.40;1.23;;;5.10;97.60;;;4.92;60.10;94416.50;5124151;27;20460;-62
2024/01/16 08:03:56;;;;;;;2.20;2.00;;;5.10;97.80;;;4.93;60.18;94420.78;5120818;27;20483;-62
2024/01/16 08:06:24;;;;;;;9.20;5.30;;;5.10;97.60;;;4.92;59.70;94424.31;5123659;27;20473;-61
2024/01/16 08:08:53;;;;;;;15.80;6.03;;;5.10;97.40;;;4.91;59.74;94433.09;5124877;27;20551;-64
2024/01/16 08:11:20;;;;;;;11.77;5.30;;;5.10;97.40;;;4.90;59.81;94426.22;5122051;27;20467;-62
2024/01/16 08:13:47;;;;;;;3.47;1.83;;;5.00;97.20;;;4.86;59.13;94432.59;5123676;27;20445;-63
2024/01/16 08:16:15;;;;;;;1.63;1.40;;;5.00;96.90;;;4.84;59.50;94444.91;5121974;27;20475;-61
2024/01/16 08:18:42;;;;;;;1.40;1.07;;;5.00;97.00;;;4.82;59.02;94449.44;5123166;27;20496;-62
2024/01/16 08:21:09;;;;;;;1.50;1.40;;;5.00;96.70;;;4.79;58.80;94458.28;5122229;27;20471;-62
2024/01/16 08:23:37;;;;;;;2.40;1.17;;;5.00;96.70;;;4.73;59.05;94461.34;5123175;27;20456;-62
2024/01/16 08:26:06;;;;;;;1.40;1.00;;;4.90;96.40;;;4.69;58.26;94466.91;5122104;27;20484;-63
2024/01/16 08:28:33;;;;;;;1.00;0.90;;;4.90;96.30;;;4.67;58.65;94473.06;5123417;27;20460;-62
2024/01/16 08:31:00;;;;;;;1.60;1.10;;;4.80;96.20;;;4.66;58.62;94484.44;5122329;27;20472;-62
2024/01/16 08:33:27;;;;;;;8.77;1.30;;;4.80;96.20;;;4.67;58.52;94493.88;5121758;27;21032;-61
2024/01/16 08:35:55;;;;;;;1.20;1.10;;;4.80;96.10;;;4.66;58.55;94478.38;5122350;27;20483;-63
2024/01/16 08:38:22;;;;;;;1.37;1.10;;;4.80;96.30;;;4.66;59.08;94494.84;5122892;27;20508;-62
2024/01/16 08:40:49;;;;;;;1.03;0.93;;;4.80;96.30;;;4.69;59.15;94503.38;5122183;27;20529;-63
2024/01/16 08:43:18;;;;;;;1.20;1.10;;;4.80;96.40;;;4.71;59.18;94509.28;5124397;27;20786;-63
2024/01/16 08:45:47;;;;;;;1.93;1.83;;;4.80;96.50;;;4.72;59.23;94513.56;5121905;27;20472;-63
2024/01/16 08:48:16;;;;;;;1.57;1.37;;;4.80;96.40;;;4.73;58.80;94521.28;5123046;27;20539;-62
2024/01/16 08:50:43;;;;;;;1.57;1.47;;;4.90;96.30;;;4.73;58.68;94520.44;5121625;27;20464;-63
2024/01/16 08:53:11;;;;;;;1.40;1.30;;;4.80;96.30;;;4.73;58.93;94530.88;5123100;27;20995;-63
2024/01/16 08:55:38;;;;;;;1.60;1.20;;;4.90;96.50;;;4.72;58.76;94526.59;5121679;27;20546;-61
2024/01/16 08:58:05;;;;;;;2.43;1.20;;;4.90;96.30;;;4.71;58.54;94532.75;5122296;27;20489;-63
2024/01/16 09:00:34;;;;;;;1.70;1.10;;;4.90;96.10;;;4.71;58.60;94532.75;5121524;27;20476;-64
2024/01/16 09:03:01;;;;;;;1.53;1.43;;;4.80;96.10;;;4.70;58.69;94528.50;5120917;27;21005;-62
2024/01/16 09:05:28;;;;;;;1.70;1.60;;;4.80;95.90;;;4.70;58.81;94529.31;5121675;27;20602;-61
2024/01/16 09:07:56;;;;;;;1.27;1.17;;;4.90;96.10;;;4.74;58.54;94528.16;5122717;27;20447;-63
2024/01/16 09:10:23;;;;;;;1.47;1.20;;;4.90;96.10;;;4.77;58.36;94543.56;5122074;27;20472;-63
2024/01/16 09:12:51;;;;;;;1.17;1.07;;;4.90;96.00;;;4.80;58.40;94543.34;5121774;27;20445;-63
2024/01/16 09:15:18;;;;;;;1.10;1.00;;;4.90;95.90;;;4.81;58.29;94539.78;5121595;27;20464;-64
2024/01/16 09:17:46;;;;;;;1.63;1.53;;;5.00;95.80;;;4.82;58.51;94533.63;5121760;27;20507;-63
2024/01/16 09:20:14;;;;;;;1.60;1.50;;;5.00;95.90;;;4.89;58.50;94541.00;5120211;27;20465;-63
2024/01/16 09:22:41;;;;;;;1.27;1.00;;;5.00;95.90;;;4.93;58.26;94545.84;5121491;27;20451;-63
2024/01/16 09:25:09;;;;;;;1.30;1.20;;;5.00;95.50;;;4.96;58.20;94545.63;5121332;27;20465;-63
2024/01/16 09:27:36;;;;;;;3.93;3.00;;;5.10;95.50;;;5.01;57.65;94555.72;5121351;27;20440;-64
2024/01/16 09:30:07;;;;;;;1.40;1.30;;;5.20;95.50;;;5.08;57.63;94553.47;5121477;27;20552;-63
2024/01/16 09:32:35;;;;;;;1.47;1.17;;;5.20;95.30;;;5.13;57.94;94552.19;5120057;27;20448;-62
2024/01/16 09:35:07;;;;;;;1.23;1.13;;;5.20;95.20;;;5.18;57.77;94547.47;5121176;27;20473;-62
2024/01/16 09:37:34;;;;;;;1.30;1.20;;;5.30;95.10;;;5.20;57.25;94534.31;5120394;27;21415;-63
2024/01/16 09:40:02;;;;;;;1.20;1.10;;;5.30;94.70;;;5.31;57.08;94546.53;5122261;27;20483;-62
2024/01/16 09:42:29;;;;;;;1.30;1.10;;;5.40;94.80;;;5.48;57.03;94553.09;5120335;27;20444;-63
2024/01/16 09:44:57;;;;;;;1.30;1.20;;;5.50;94.80;;;5.59;56.66;94552.25;5121790;27;20445;-64
2024/01/16 09:47:24;;;;;;;1.17;1.07;;;5.60;94.50;;;5.69;56.45;94569.72;5120537;27;20448;-64
2024/01/16 09:49:52;;;;;;;1.70;1.33;;;5.80;94.20;;;5.77;56.04;94560.47;5122126;27;20883;-62
2024/01/16 09:52:20;;;;;;;1.67;1.17;;;5.80;93.80;;;5.89;55.31;94562.94;5120614;27;20932;-62
2024/01/16 09:54:48;;;;;;;1.67;1.47;;;6.00;93.60;;;6.30;55.38;94555.47;5122332;27;20449;-67
2024/01/16 09:57:15;;;;;;;2.13;1.70;;;6.30;93.80;;;6.98;54.37;94557.88;5121912;27;20539;-62
2024/01/16 09:59:43;;;;;;;1.50;1.40;;;6.70;93.50;;;7.51;53.45;94549.13;5122162;27;20514;-64
2024/01/16 10:02:11;;;;;;;2.60;2.23;;;7.20;92.70;;;8.02;52.47;94555.31;5119337;27;20475;-63
2024/01/16 10:04:39;;;;;;;1.57;1.47;;;7.80;92.00;;;8.33;51.67;94548.22;5121751;27;20452;-64
2024/01/16 10:07:06;;;;;;;2.20;1.10;;;8.10;90.60;;;8.40;51.33;94548.53;5120088;27;20451;-63
2024/01/16 10:09:35;;;;;;;1.63;1.43;;;8.30;89.40;;;8.25;50.48;94545.47;5121623;27;20574;-62
2024/01/16 10:12:02;;;;;;;1.30;1.20;;;8.20;87.70;;;8.09;49.69;94540.72;5119851;27;20550;-64
2024/01/16 10:14:30;;;;;;;1.93;1.27;;;8.10;86.50;;;8.08;50.99;94544.31;5121729;27;20517;-62
2024/01/16 10:17:02;;;;;;;4.10;2.40;;;8.10;86.50;;;7.97;49.00;94550.47;5120204;27;20468;-65
2024/01/16 10:19:30;;;;;;;5.87;1.93;;;8.00;84.00;;;7.85;50.82;94541.88;5122245;27;21046;-65
2024/01/16 10:22:03;;;;;;;2.10;1.73;;;7.90;85.60;;;7.72;50.78;94560.41;5119197;27;20469;-65
2024/01/16 10:24:30;;;;;;;6.20;1.60;;;7.80;86.90;;;7.53;50.95;94553.28;5118809;27;20445;-65
2024/01/16 10:27:02;;;;;;;1.83;1.73;;;7.70;85.50;;;7.39;51.48;94556.25;5118920;27;20561;-63
2024/01/16 10:29:31;;;;;;;2.30;2.10;;;7.50;85.80;;;7.26;50.62;94566.88;5119262;27;20449;-63
2024/01/16 10:31:59;;;;;;;4.03;2.60;;;7.40;84.70;;;7.13;51.10;94572.31;5121205;27;20620;-65